Terminal Aerodrome Forecast
Issued by NWS Northern Indiana

Home | Current Version | Previous Version | Graphics & Text | Print | Product List | Glossary On
Versions: 1 2 3 4 5 6 7 8 9 10 11 12 13 14 15 16
000
FTUS43 KIWX 301100
TAFFWA
TAF
KFWA 301139Z 3012/3112 19010KT P6SM SCT070 BKN120
     FM301400 21012G20KT P6SM VCSH SCT050 OVC100
     FM301800 22017G23KT P6SM BKN050
     FM302100 22014G22KT P6SM VCTS BKN040CB PROB30 3022/3102 4SM
      -TSRA BKN030CB
     FM310400 21009KT 5SM BR SCT030 BKN080
     FM310900 22004KT 3SM BR BKN015=

USA.gov is the U.S. government's official web portal to all federal, state and local government web resources and services.